Time;durP1;ratioP1;P1;durP2;ratioP2;P2;SDS_P1;SDS_P2;PMS_P1;PMS_P2;Temp;Humidity;BMP_temperature;BMP_pressure;BME280_temperature;BME280_humidity;BME280_pressure;Samples;Min_cycle;Max_cycle;Signal;HPM_P1;HPM_P2
2024/01/02 00:01:10;;;;;;;3.87;2.33;;;;;;;;;;5054049;28;20242;-82
2024/01/02 00:03:37;;;;;;;2.53;1.80;;;;;;;;;;5054402;28;20209;-84
2024/01/02 00:06:04;;;;;;;2.60;2.40;;;;;;;;;;5054026;28;20230;-82
2024/01/02 00:08:32;;;;;;;3.07;2.13;;;;;;;;;;5054390;28;20206;-82
2024/01/02 00:10:59;;;;;;;1.37;1.37;;;;;;;;;;5054158;28;20620;-82
2024/01/02 00:13:26;;;;;;;2.00;1.87;;;;;;;;;;5054440;28;20210;-82
2024/01/02 00:15:53;;;;;;;1.47;1.37;;;;;;;;;;5048584;28;20230;-82
2024/01/02 00:18:20;;;;;;;3.73;1.83;;;;;;;;;;5051392;28;20202;-82
2024/01/02 00:20:47;;;;;;;5.30;1.87;;;;;;;;;;5045841;28;20257;-82
2024/01/02 00:23:14;;;;;;;5.43;1.80;;;;;;;;;;5054379;28;20210;-82
2024/01/02 00:25:43;;;;;;;2.07;1.80;;;;;;;;;;5045481;28;20234;-82
2024/01/02 00:28:10;;;;;;;2.73;1.43;;;;;;;;;;5054263;28;20210;-82
2024/01/02 00:30:39;;;;;;;3.23;1.60;;;;;;;;;;5053560;28;20234;-82
2024/01/02 00:33:06;;;;;;;1.60;1.50;;;;;;;;;;5054121;28;20206;-82
2024/01/02 00:35:33;;;;;;;1.70;1.60;;;;;;;;;;5053267;28;20233;-83
2024/01/02 00:38:00;;;;;;;5.27;1.90;;;;;;;;;;5054022;28;20618;-82
2024/01/02 00:40:28;;;;;;;1.60;1.50;;;;;;;;;;5053338;28;20579;-82
2024/01/02 00:42:56;;;;;;;3.10;1.70;;;;;;;;;;5053855;28;20672;-82
2024/01/02 00:45:23;;;;;;;5.87;1.80;;;;;;;;;;5048097;28;20238;-82
2024/01/02 00:47:51;;;;;;;4.17;1.73;;;;;;;;;;5053424;28;20198;-82
2024/01/02 00:50:18;;;;;;;4.77;2.33;;;;;;;;;;5053338;28;20251;-82
2024/01/02 00:52:45;;;;;;;1.80;1.70;;;;;;;;;;5053843;28;20293;-82
2024/01/02 00:55:12;;;;;;;3.53;1.87;;;;;;;;;;5053142;28;20202;-82
2024/01/02 00:57:39;;;;;;;2.53;1.80;;;;;;;;;;5053423;28;20727;-82
2024/01/02 01:00:09;;;;;;;3.47;1.80;;;;;;;;;;5053042;28;20284;-81
2024/01/02 01:02:36;;;;;;;3.53;2.00;;;;;;;;;;5053323;28;20209;-82
2024/01/02 01:05:04;;;;;;;1.60;1.50;;;;;;;;;;5052859;28;20218;-82
2024/01/02 01:07:31;;;;;;;1.47;1.47;;;;;;;;;;5053219;28;20293;-82
2024/01/02 01:09:58;;;;;;;1.63;1.43;;;;;;;;;;5052375;28;20226;-82
2024/01/02 01:12:25;;;;;;;1.67;1.57;;;;;;;;;;5052761;28;20233;-82
2024/01/02 01:14:51;;;;;;;2.33;1.60;;;;;;;;;;5052812;28;20226;-82
2024/01/02 01:17:20;;;;;;;1.43;1.43;;;;;;;;;;5047853;28;20226;-83
2024/01/02 01:19:47;;;;;;;2.40;1.87;;;;;;;;;;5045677;28;20291;-82
2024/01/02 01:22:14;;;;;;;1.80;1.70;;;;;;;;;;5052590;28;20295;-82
2024/01/02 01:24:41;;;;;;;2.07;1.90;;;;;;;;;;5052190;28;20233;-82
2024/01/02 01:27:08;;;;;;;3.07;1.70;;;;;;;;;;5051995;28;20250;-83
2024/01/02 01:29:35;;;;;;;1.50;1.50;;;;;;;;;;5052855;28;20294;-82
2024/01/02 01:32:02;;;;;;;1.47;1.43;;;;;;;;;;5046930;28;20778;-82
2024/01/02 01:34:31;;;;;;;2.50;1.67;;;;;;;;;;5050639;28;20214;-82
2024/01/02 01:36:58;;;;;;;1.83;1.70;;;;;;;;;;5052243;28;20236;-82
2024/01/02 01:39:25;;;;;;;1.70;1.60;;;;;;;;;;5052629;28;20283;-82
2024/01/02 01:41:52;;;;;;;1.60;1.50;;;;;;;;;;5050829;28;20704;-82
2024/01/02 01:44:19;;;;;;;1.50;1.50;;;;;;;;;;5052481;28;20283;-82
2024/01/02 01:46:46;;;;;;;1.63;1.50;;;;;;;;;;5041352;28;20284;-82
2024/01/02 01:49:13;;;;;;;1.30;1.30;;;;;;;;;;5052514;28;20753;-82
2024/01/02 01:51:43;;;;;;;2.40;1.50;;;;;;;;;;5051744;28;20226;-82
2024/01/02 01:54:11;;;;;;;1.40;1.40;;;;;;;;;;5047027;28;20230;-82
2024/01/02 01:56:39;;;;;;;1.70;1.60;;;;;;;;;;5049260;28;20283;-82
2024/01/02 01:59:06;;;;;;;1.73;1.63;;;;;;;;;;5051618;28;20234;-82
2024/01/02 02:01:34;;;;;;;1.73;1.63;;;;;;;;;;5048616;28;20241;-82
2024/01/02 02:04:01;;;;;;;1.57;1.50;;;;;;;;;;5052069;28;20214;-82
2024/01/02 02:06:28;;;;;;;1.77;1.67;;;;;;;;;;5051801;28;20597;-82
2024/01/02 02:08:57;;;;;;;1.80;1.70;;;;;;;;;;5050439;28;20221;-82
2024/01/02 02:11:25;;;;;;;1.57;1.50;;;;;;;;;;5054712;28;20230;-81
2024/01/02 02:13:52;;;;;;;1.53;1.50;;;;;;;;;;5043737;28;20673;-82
2024/01/02 02:16:19;;;;;;;2.73;1.60;;;;;;;;;;5051496;28;20234;-81
2024/01/02 02:18:46;;;;;;;2.20;1.50;;;;;;;;;;5048748;28;20217;-81
2024/01/02 02:21:13;;;;;;;1.43;1.43;;;;;;;;;;5040854;28;20226;-81
2024/01/02 02:23:42;;;;;;;1.20;1.20;;;;;;;;;;5047177;28;20281;-81
2024/01/02 02:26:09;;;;;;;2.93;1.70;;;;;;;;;;5051062;28;20743;-81
2024/01/02 02:28:37;;;;;;;2.20;1.70;;;;;;;;;;5051474;28;20206;-81
2024/01/02 02:31:04;;;;;;;3.27;1.70;;;;;;;;;;5048761;28;20233;-81
2024/01/02 02:33:31;;;;;;;2.00;1.80;;;;;;;;;;5049310;28;20209;-81
2024/01/02 02:35:58;;;;;;;1.70;1.60;;;;;;;;;;5041856;28;20240;-81
2024/01/02 02:38:25;;;;;;;1.40;1.30;;;;;;;;;;5049243;28;20702;-81
2024/01/02 02:40:53;;;;;;;1.90;1.80;;;;;;;;;;5051235;28;20238;-81
2024/01/02 02:43:20;;;;;;;1.60;1.50;;;;;;;;;;5048369;28;20202;-81
2024/01/02 02:45:47;;;;;;;1.50;1.40;;;;;;;;;;5050274;28;20280;-81
2024/01/02 02:48:14;;;;;;;1.70;1.57;;;;;;;;;;5050927;28;20570;-81
2024/01/02 02:50:41;;;;;;;1.70;1.60;;;;;;;;;;5050990;28;20233;-81
2024/01/02 02:53:08;;;;;;;1.50;1.50;;;;;;;;;;5049690;28;20252;-81
2024/01/02 02:55:35;;;;;;;1.60;1.50;;;;;;;;;;5050789;28;20237;-81
2024/01/02 02:58:04;;;;;;;1.30;1.30;;;;;;;;;;5046726;28;20703;-84
2024/01/02 03:00:31;;;;;;;1.60;1.50;;;;;;;;;;5044718;28;20257;-80
2024/01/02 03:02:58;;;;;;;1.60;1.50;;;;;;;;;;5051535;28;20214;-81
2024/01/02 03:05:25;;;;;;;3.90;1.40;;;;;;;;;;5048594;28;20241;-84
2024/01/02 03:07:52;;;;;;;2.30;1.70;;;;;;;;;;5051317;28;20247;-81
2024/01/02 03:10:19;;;;;;;3.23;1.70;;;;;;;;;;5043669;28;20231;-81
2024/01/02 03:12:46;;;;;;;1.30;1.30;;;;;;;;;;5041549;28;20217;-81
2024/01/02 03:15:15;;;;;;;1.67;1.67;;;;;;;;;;5047362;28;20298;-83
2024/01/02 03:17:42;;;;;;;1.30;1.30;;;;;;;;;;5050977;28;20723;-82
2024/01/02 03:20:09;;;;;;;1.50;1.50;;;;;;;;;;5046995;28;20229;-82
2024/01/02 03:22:36;;;;;;;1.77;1.67;;;;;;;;;;5050924;28;20222;-83
2024/01/02 03:25:04;;;;;;;1.63;1.53;;;;;;;;;;5050834;28;20202;-81
2024/01/02 03:27:31;;;;;;;1.23;1.23;;;;;;;;;;5051302;28;20206;-80
2024/01/02 03:29:58;;;;;;;1.47;1.47;;;;;;;;;;5051182;28;20222;-81
2024/01/02 03:32:27;;;;;;;1.30;1.30;;;;;;;;;;5051014;28;20739;-81
2024/01/02 03:34:54;;;;;;;3.13;1.33;;;;;;;;;;5051174;28;20297;-81
2024/01/02 03:37:21;;;;;;;1.50;1.40;;;;;;;;;;5051097;28;20229;-83
2024/01/02 03:39:48;;;;;;;1.30;1.30;;;;;;;;;;5043808;28;20229;-81
2024/01/02 03:42:15;;;;;;;1.70;1.70;;;;;;;;;;5052404;28;20291;-79
2024/01/02 03:44:42;;;;;;;1.33;1.30;;;;;;;;;;5053491;28;20263;-79
2024/01/02 03:47:09;;;;;;;1.20;1.20;;;;;;;;;;5048871;28;20229;-81
2024/01/02 03:49:38;;;;;;;1.20;1.20;;;;;;;;;;5051048;28;20222;-82
2024/01/02 03:52:05;;;;;;;1.20;1.20;;;;;;;;;;5050609;28;20226;-81
2024/01/02 03:54:32;;;;;;;1.33;1.33;;;;;;;;;;5048148;28;20205;-81
2024/01/02 03:56:59;;;;;;;1.20;1.20;;;;;;;;;;5046946;28;20233;-82
2024/01/02 03:59:26;;;;;;;1.30;1.30;;;;;;;;;;5045601;28;20315;-81
2024/01/02 04:01:53;;;;;;;1.30;1.30;;;;;;;;;;5048456;28;20240;-81
2024/01/02 04:04:20;;;;;;;1.40;1.40;;;;;;;;;;5048819;28;20776;-81
2024/01/02 04:06:49;;;;;;;1.33;1.27;;;;;;;;;;5046090;28;20313;-82
2024/01/02 04:09:16;;;;;;;1.23;1.23;;;;;;;;;;5051029;28;20221;-82
2024/01/02 04:11:43;;;;;;;1.30;1.30;;;;;;;;;;5050289;28;20226;-81
2024/01/02 04:14:10;;;;;;;2.43;1.30;;;;;;;;;;5048832;28;20283;-81
2024/01/02 04:16:37;;;;;;;1.60;1.50;;;;;;;;;;5044510;28;20233;-81
2024/01/02 04:19:04;;;;;;;1.37;1.37;;;;;;;;;;5041698;28;20226;-81
2024/01/02 04:21:31;;;;;;;1.10;1.10;;;;;;;;;;5051301;28;20316;-81
2024/01/02 04:24:00;;;;;;;1.30;1.30;;;;;;;;;;5046087;28;20217;-82
2024/01/02 04:26:27;;;;;;;1.30;1.30;;;;;;;;;;5046154;28;20229;-81
2024/01/02 04:28:54;;;;;;;1.30;1.30;;;;;;;;;;5054038;28;20202;-82
2024/01/02 04:31:21;;;;;;;1.20;1.20;;;;;;;;;;5053729;28;20222;-81
2024/01/02 04:33:48;;;;;;;1.40;1.40;;;;;;;;;;5038781;28;20211;-81
2024/01/02 04:36:15;;;;;;;1.20;1.20;;;;;;;;;;5052914;28;20596;-82
2024/01/02 04:38:42;;;;;;;1.00;1.00;;;;;;;;;;5052185;28;20272;-81
2024/01/02 04:41:12;;;;;;;1.40;1.40;;;;;;;;;;5046747;28;20634;-81
2024/01/02 04:43:39;;;;;;;1.20;1.20;;;;;;;;;;5048340;28;20579;-81
2024/01/02 04:46:06;;;;;;;1.40;1.40;;;;;;;;;;5053069;28;20226;-81
2024/01/02 04:48:33;;;;;;;1.20;1.20;;;;;;;;;;5051033;28;20568;-84
2024/01/02 04:51:00;;;;;;;1.10;1.10;;;;;;;;;;5051525;28;20245;-82
2024/01/02 04:53:27;;;;;;;1.20;1.20;;;;;;;;;;5053775;28;20693;-82
2024/01/02 04:55:55;;;;;;;1.20;1.20;;;;;;;;;;5052768;28;20234;-81
2024/01/02 04:58:23;;;;;;;1.30;1.30;;;;;;;;;;5053818;28;20653;-84
2024/01/02 05:00:50;;;;;;;1.30;1.30;;;;;;;;;;5049046;28;20237;-85
2024/01/02 05:03:17;;;;;;;1.20;1.20;;;;;;;;;;5052922;28;20198;-81
2024/01/02 05:05:44;;;;;;;1.37;1.37;;;;;;;;;;5048177;28;20702;-81
2024/01/02 05:08:11;;;;;;;1.50;1.50;;;;;;;;;;5052526;28;20209;-81
2024/01/02 05:10:38;;;;;;;1.20;1.20;;;;;;;;;;5052640;28;20229;-81
2024/01/02 05:13:05;;;;;;;1.20;1.20;;;;;;;;;;5051941;28;20217;-84
2024/01/02 05:18:05;;;;;;;1.37;1.37;;;;;;;;;;5053723;28;20587;-84
2024/01/02 05:20:32;;;;;;;1.27;1.27;;;;;;;;;;5057860;28;20632;-87
2024/01/02 05:23:03;;;;;;;1.30;1.30;;;;;;;;;;5066397;28;20666;-86
2024/01/02 05:25:30;;;;;;;1.40;1.40;;;;;;;;;;5073156;28;20263;-87
2024/01/02 05:27:57;;;;;;;1.27;1.27;;;;;;;;;;5089373;28;20225;-87
2024/01/02 05:30:24;;;;;;;1.20;1.20;;;;;;;;;;5088394;28;20228;-87
2024/01/02 05:32:51;;;;;;;1.30;1.30;;;;;;;;;;5075116;28;20205;-87
2024/01/02 05:35:20;;;;;;;1.40;1.30;;;;;;;;;;5087184;28;20201;-90
2024/01/02 05:37:47;;;;;;;1.33;1.33;;;;;;;;;;5077257;28;20233;-87
2024/01/02 05:40:14;;;;;;;1.90;1.63;;;;;;;;;;5072773;28;20214;-88
2024/01/02 05:42:41;;;;;;;1.10;1.10;;;;;;;;;;5090333;28;20228;-88
2024/01/02 05:45:08;;;;;;;1.20;1.20;;;;;;;;;;5078370;28;20208;-87
2024/01/02 05:47:36;;;;;;;1.30;1.30;;;;;;;;;;5084881;28;20236;-91
2024/01/02 05:50:03;;;;;;;1.43;1.20;;;;;;;;;;5082096;28;20604;-86
2024/01/02 05:52:31;;;;;;;1.13;1.13;;;;;;;;;;5082257;28;20209;-87
2024/01/02 05:54:58;;;;;;;1.30;1.30;;;;;;;;;;5084443;28;20219;-88
2024/01/02 05:57:25;;;;;;;1.20;1.20;;;;;;;;;;5086068;28;20240;-87
2024/01/02 05:59:52;;;;;;;1.30;1.30;;;;;;;;;;5092680;28;20587;-88
2024/01/02 06:02:19;;;;;;;1.60;1.17;;;;;;;;;;5101311;28;20225;-86
2024/01/02 06:04:46;;;;;;;1.23;1.23;;;;;;;;;;5097793;28;20197;-89
2024/01/02 06:07:13;;;;;;;1.20;1.20;;;;;;;;;;5116418;28;20224;-88
2024/01/02 06:09:42;;;;;;;1.30;1.30;;;;;;;;;;5111044;28;20191;-87
2024/01/02 06:12:09;;;;;;;1.47;1.37;;;;;;;;;;5104342;28;20220;-84
2024/01/02 06:14:37;;;;;;;1.30;1.30;;;;;;;;;;5093238;28;20717;-86
2024/01/02 06:17:04;;;;;;;1.47;1.40;;;;;;;;;;5102433;28;20233;-84
2024/01/02 06:19:31;;;;;;;1.60;1.50;;;;;;;;;;5085260;28;20659;-84
2024/01/02 06:21:58;;;;;;;1.50;1.50;;;;;;;;;;5074948;28;20232;-84
2024/01/02 06:24:25;;;;;;;1.33;1.33;;;;;;;;;;5084422;28;20228;-87
2024/01/02 06:26:54;;;;;;;1.30;1.30;;;;;;;;;;5072835;28;20229;-84
2024/01/02 06:29:21;;;;;;;1.47;1.43;;;;;;;;;;5075414;28;20208;-85
2024/01/02 06:31:48;;;;;;;1.40;1.30;;;;;;;;;;5079897;28;20261;-84
2024/01/02 06:34:15;;;;;;;2.10;1.50;;;;;;;;;;5072179;28;20201;-85
2024/01/02 06:36:42;;;;;;;1.20;1.20;;;;;;;;;;5080712;28;20278;-84
2024/01/02 06:39:09;;;;;;;1.30;1.30;;;;;;;;;;5083747;28;20698;-84
2024/01/02 06:41:36;;;;;;;1.30;1.30;;;;;;;;;;5083413;28;20236;-84
2024/01/02 06:44:05;;;;;;;1.50;1.40;;;;;;;;;;5071471;28;20202;-85
2024/01/02 06:46:32;;;;;;;1.40;1.40;;;;;;;;;;5071454;28;20241;-88
2024/01/02 06:48:59;;;;;;;1.53;1.50;;;;;;;;;;5083496;28;20231;-86
2024/01/02 06:51:29;;;;;;;1.20;1.20;;;;;;;;;;5065806;28;20317;-85
2024/01/02 06:54:15;;;;;;;1.23;1.23;;;;;;;;;;5082580;28;20589;-85
2024/01/02 06:56:42;;;;;;;1.40;1.40;;;;;;;;;;5079663;28;20228;-84
2024/01/02 06:59:17;;;;;;;1.53;1.43;;;;;;;;;;5077983;28;20240;-84
2024/01/02 07:01:46;;;;;;;1.73;1.63;;;;;;;;;;5079379;28;20323;-85
2024/01/02 07:04:13;;;;;;;1.43;1.43;;;;;;;;;;5080591;28;20686;-84
2024/01/02 07:06:40;;;;;;;1.43;1.43;;;;;;;;;;5088699;28;20236;-85
2024/01/02 07:09:07;;;;;;;1.60;1.60;;;;;;;;;;5095839;28;20208;-85
2024/01/02 07:11:34;;;;;;;1.40;1.40;;;;;;;;;;5092630;28;20568;-85
2024/01/02 07:14:01;;;;;;;1.40;1.40;;;;;;;;;;5089315;28;20212;-85
2024/01/02 07:16:31;;;;;;;1.47;1.40;;;;;;;;;;5103205;28;20232;-84
2024/01/02 07:18:59;;;;;;;1.70;1.60;;;;;;;;;;5097207;28;20247;-84
2024/01/02 07:21:26;;;;;;;1.40;1.40;;;;;;;;;;5104633;28;20240;-84
2024/01/02 07:23:53;;;;;;;1.30;1.30;;;;;;;;;;5090865;28;20673;-85
2024/01/02 07:26:20;;;;;;;1.70;1.60;;;;;;;;;;5090894;28;20248;-85
2024/01/02 07:28:47;;;;;;;1.40;1.40;;;;;;;;;;5090834;28;20334;-85
2024/01/02 07:31:14;;;;;;;1.43;1.43;;;;;;;;;;5085020;28;20282;-85
2024/01/02 07:33:43;;;;;;;1.77;1.63;;;;;;;;;;5093799;28;20204;-85
2024/01/02 07:36:10;;;;;;;1.80;1.70;;;;;;;;;;5092366;28;20338;-87
2024/01/02 07:38:37;;;;;;;1.30;1.30;;;;;;;;;;5091421;28;20232;-86
2024/01/02 07:41:05;;;;;;;1.40;1.40;;;;;;;;;;5090501;28;20244;-86
2024/01/02 07:43:32;;;;;;;1.40;1.40;;;;;;;;;;5090682;28;20200;-86
2024/01/02 07:46:00;;;;;;;1.50;1.50;;;;;;;;;;5089130;28;20236;-85
2024/01/02 07:48:27;;;;;;;1.27;1.27;;;;;;;;;;5091104;28;20679;-85
2024/01/02 07:50:56;;;;;;;2.00;1.50;;;;;;;;;;5089807;28;20772;-85
2024/01/02 07:53:23;;;;;;;1.33;1.33;;;;;;;;;;5090529;28;20221;-85
2024/01/02 07:55:50;;;;;;;1.43;1.43;;;;;;;;;;5081848;28;20249;-85
2024/01/02 07:58:17;;;;;;;1.60;1.50;;;;;;;;;;5094778;28;20705;-84
2024/01/02 08:00:44;;;;;;;1.53;1.53;;;;;;;;;;5094049;28;20720;-86
2024/01/02 08:03:11;;;;;;;1.70;1.60;;;;;;;;;;5094000;28;20219;-86
2024/01/02 08:05:38;;;;;;;1.30;1.30;;;;;;;;;;5085959;28;20232;-85
2024/01/02 08:08:09;;;;;;;1.50;1.40;;;;;;;;;;5094209;28;20205;-86
2024/01/02 08:10:37;;;;;;;1.40;1.40;;;;;;;;;;5093741;28;20240;-85
2024/01/02 08:13:04;;;;;;;1.30;1.30;;;;;;;;;;5094090;28;20296;-86
2024/01/02 08:15:32;;;;;;;1.17;1.17;;;;;;;;;;5086734;28;20254;-86
2024/01/02 08:17:59;;;;;;;1.50;1.50;;;;;;;;;;5093867;28;20244;-86
2024/01/02 08:20:26;;;;;;;1.30;1.30;;;;;;;;;;5093539;28;20596;-85
2024/01/02 08:22:53;;;;;;;1.83;1.40;;;;;;;;;;5093717;28;20209;-85
2024/01/02 08:25:23;;;;;;;1.50;1.50;;;;;;;;;;5093186;28;20815;-86
2024/01/02 08:27:54;;;;;;;1.27;1.27;;;;;;;;;;5094073;28;20819;-85
2024/01/02 08:30:21;;;;;;;1.30;1.30;;;;;;;;;;5093534;28;20207;-86
2024/01/02 08:32:48;;;;;;;1.30;1.30;;;;;;;;;;5085044;28;20223;-87
2024/01/02 08:35:16;;;;;;;1.33;1.33;;;;;;;;;;5087747;28;20213;-89
2024/01/02 08:37:43;;;;;;;1.33;1.33;;;;;;;;;;5094678;28;20229;-85
2024/01/02 08:40:11;;;;;;;1.47;1.47;;;;;;;;;;5082387;28;20588;-86
2024/01/02 08:42:48;;;;;;;1.23;1.23;;;;;;;;;;5092208;28;20219;-84
2024/01/02 08:45:16;;;;;;;2.20;1.73;;;;;;;;;;5086863;28;20208;-84
2024/01/02 08:47:43;;;;;;;1.40;1.40;;;;;;;;;;5094252;28;20597;-86
2024/01/02 08:50:10;;;;;;;1.50;1.47;;;;;;;;;;5093277;28;21025;-86
2024/01/02 08:52:37;;;;;;;1.40;1.40;;;;;;;;;;5093433;28;20213;-86
2024/01/02 08:55:23;;;;;;;1.30;1.30;;;;;;;;;;5082541;28;20215;-88
2024/01/02 08:57:51;;;;;;;1.20;1.20;;;;;;;;;;5093168;28;20232;-86
2024/01/02 09:00:18;;;;;;;1.43;1.43;;;;;;;;;;5092861;28;20683;-85
2024/01/02 09:02:45;;;;;;;1.50;1.40;;;;;;;;;;5085014;28;20225;-85
2024/01/02 09:05:12;;;;;;;1.40;1.40;;;;;;;;;;5089635;28;20670;-85
2024/01/02 09:07:40;;;;;;;1.30;1.30;;;;;;;;;;5093150;28;20237;-85
2024/01/02 09:10:08;;;;;;;1.43;1.33;;;;;;;;;;5092567;28;20208;-85
2024/01/02 09:12:35;;;;;;;1.57;1.47;;;;;;;;;;5093444;28;20212;-85
2024/01/02 09:15:04;;;;;;;1.43;1.43;;;;;;;;;;5092102;28;20212;-82
2024/01/02 09:17:31;;;;;;;1.30;1.30;;;;;;;;;;5092990;28;20262;-85
2024/01/02 09:19:58;;;;;;;1.70;1.60;;;;;;;;;;5093167;28;20271;-85
2024/01/02 09:22:25;;;;;;;1.47;1.47;;;;;;;;;;5092766;28;20228;-87
2024/01/02 09:24:53;;;;;;;1.50;1.50;;;;;;;;;;5092320;28;20207;-86
2024/01/02 09:27:21;;;;;;;1.47;1.37;;;;;;;;;;5092600;28;20252;-86
2024/01/02 09:29:48;;;;;;;1.10;1.10;;;;;;;;;;5092740;28;20207;-87
2024/01/02 09:32:17;;;;;;;1.50;1.47;;;;;;;;;;5080421;28;20217;-87
2024/01/02 09:34:48;;;;;;;1.37;1.37;;;;;;;;;;5080760;28;20206;-88
2024/01/02 09:37:16;;;;;;;1.70;1.60;;;;;;;;;;5071770;28;20240;-88
2024/01/02 09:39:44;;;;;;;1.20;1.20;;;;;;;;;;5072529;28;20241;-88
2024/01/02 09:42:19;;;;;;;1.50;1.50;;;;;;;;;;5089843;28;20317;-88
2024/01/02 09:44:54;;;;;;;2.53;1.50;;;;;;;;;;5092752;28;20227;-88
2024/01/02 09:47:31;;;;;;;1.40;1.40;;;;;;;;;;5071874;28;20302;-87
2024/01/02 09:49:59;;;;;;;1.30;1.30;;;;;;;;;;5090510;28;20555;-88
2024/01/02 09:52:33;;;;;;;1.17;1.17;;;;;;;;;;5092177;28;20228;-88
2024/01/02 09:55:08;;;;;;;1.50;1.50;;;;;;;;;;5082118;28;20201;-88
2024/01/02 09:57:38;;;;;;;1.20;1.20;;;;;;;;;;5071794;28;20229;-90
2024/01/02 10:00:07;;;;;;;1.40;1.40;;;;;;;;;;5079585;28;20228;-88
2024/01/02 10:03:04;;;;;;;1.10;1.10;;;;;;;;;;5080260;28;20210;-87
2024/01/02 10:05:42;;;;;;;1.53;1.53;;;;;;;;;;4989600;28;20378;-86
2024/01/02 10:08:18;;;;;;;1.30;1.30;;;;;;;;;;5067315;28;20204;-85
2024/01/02 10:10:50;;;;;;;4.20;1.90;;;;;;;;;;5071318;28;20243;-84
2024/01/02 10:13:23;;;;;;;1.13;1.13;;;;;;;;;;5071314;28;20296;-85
2024/01/02 10:15:54;;;;;;;1.27;1.27;;;;;;;;;;5072757;28;20316;-85
2024/01/02 10:18:24;;;;;;;1.93;1.83;;;;;;;;;;5078237;28;20264;-86
2024/01/02 10:20:58;;;;;;;1.30;1.30;;;;;;;;;;5067998;28;20236;-84
2024/01/02 10:23:30;;;;;;;2.00;1.30;;;;;;;;;;5071001;28;20237;-86
2024/01/02 10:26:00;;;;;;;1.50;1.43;;;;;;;;;;5070570;28;20241;-84
2024/01/02 10:28:28;;;;;;;1.17;1.17;;;;;;;;;;5071446;28;20264;-85
2024/01/02 10:31:00;;;;;;;1.30;1.30;;;;;;;;;;5071129;28;20237;-84
2024/01/02 10:33:32;;;;;;;1.50;1.40;;;;;;;;;;5076290;28;20201;-85
2024/01/02 10:36:02;;;;;;;1.80;1.70;;;;;;;;;;5072606;28;20237;-84
2024/01/02 10:38:36;;;;;;;2.00;1.73;;;;;;;;;;5077817;28;20205;-86
2024/01/02 10:41:06;;;;;;;1.30;1.30;;;;;;;;;;5072349;28;20241;-84
2024/01/02 10:43:41;;;;;;;1.60;1.60;;;;;;;;;;5076908;28;20284;-85
2024/01/02 10:46:12;;;;;;;1.10;1.10;;;;;;;;;;5070173;28;20611;-85
2024/01/02 10:48:45;;;;;;;1.30;1.30;;;;;;;;;;5073683;28;20258;-85
2024/01/02 10:51:20;;;;;;;1.40;1.40;;;;;;;;;;5069956;28;20250;-85
2024/01/02 10:53:50;;;;;;;1.23;1.23;;;;;;;;;;5070493;28;20205;-85
2024/01/02 10:56:21;;;;;;;1.50;1.40;;;;;;;;;;5074995;28;20725;-85
2024/01/02 10:58:52;;;;;;;1.50;1.40;;;;;;;;;;5072520;28;20205;-85
2024/01/02 11:01:22;;;;;;;1.97;1.57;;;;;;;;;;5083054;28;20620;-85
2024/01/02 11:03:54;;;;;;;1.20;1.20;;;;;;;;;;5082251;28;20205;-85
2024/01/02 11:06:27;;;;;;;2.00;1.90;;;;;;;;;;5070123;28;20742;-85
2024/01/02 11:09:01;;;;;;;1.70;1.60;;;;;;;;;;5070627;28;20206;-85
2024/01/02 11:11:29;;;;;;;1.63;1.57;;;;;;;;;;5069632;28;20232;-85
2024/01/02 11:13:57;;;;;;;2.20;2.00;;;;;;;;;;5075509;28;20267;-84
2024/01/02 11:16:27;;;;;;;1.47;1.47;;;;;;;;;;5087997;28;20673;-85
2024/01/02 11:18:57;;;;;;;1.43;1.40;;;;;;;;;;5081503;28;20213;-85
2024/01/02 11:21:34;;;;;;;2.10;1.90;;;;;;;;;;5075649;28;20260;-85
2024/01/02 11:24:02;;;;;;;1.50;1.40;;;;;;;;;;5084054;28;20204;-84
2024/01/02 11:26:31;;;;;;;1.60;1.40;;;;;;;;;;5088712;28;20244;-84
2024/01/02 11:29:01;;;;;;;2.27;1.70;;;;;;;;;;5089271;28;20670;-84
2024/01/02 11:31:31;;;;;;;2.20;2.10;;;;;;;;;;5085593;28;20818;-84
2024/01/02 11:34:05;;;;;;;2.17;2.00;;;;;;;;;;5093238;28;20204;-84
2024/01/02 11:36:41;;;;;;;2.07;1.97;;;;;;;;;;5092682;28;20254;-84
2024/01/02 11:39:10;;;;;;;1.53;1.47;;;;;;;;;;5093317;28;20276;-84
2024/01/02 11:41:41;;;;;;;1.50;1.50;;;;;;;;;;5086720;28;20236;-85
2024/01/02 11:44:10;;;;;;;1.57;1.40;;;;;;;;;;5093168;28;20205;-84
2024/01/02 11:46:39;;;;;;;3.13;1.67;;;;;;;;;;5093221;28;20724;-84
2024/01/02 11:49:11;;;;;;;1.80;1.70;;;;;;;;;;5094958;28;20292;-84
2024/01/02 11:51:40;;;;;;;1.13;1.13;;;;;;;;;;5093885;28;20232;-84
2024/01/02 11:54:15;;;;;;;1.57;1.57;;;;;;;;;;5093748;28;20213;-84
2024/01/02 11:56:43;;;;;;;1.80;1.70;;;;;;;;;;5104863;28;20667;-83
2024/01/02 11:59:18;;;;;;;1.40;1.40;;;;;;;;;;5106780;28;20248;-83
2024/01/02 12:01:50;;;;;;;1.50;1.40;;;;;;;;;;5104660;28;20311;-82
2024/01/02 12:04:23;;;;;;;1.60;1.57;;;;;;;;;;5092196;28;20212;-85
2024/01/02 12:06:53;;;;;;;3.40;2.70;;;;;;;;;;5092473;28;20290;-84
2024/01/02 12:09:21;;;;;;;1.40;1.40;;;;;;;;;;5087151;28;20211;-85
2024/01/02 12:11:49;;;;;;;1.60;1.60;;;;;;;;;;5088724;28;20229;-84
2024/01/02 12:14:31;;;;;;;1.43;1.40;;;;;;;;;;5091669;28;20219;-84
2024/01/02 12:17:02;;;;;;;1.73;1.60;;;;;;;;;;5091726;28;20645;-85
2024/01/02 12:19:31;;;;;;;1.60;1.50;;;;;;;;;;5092487;28;20236;-84
2024/01/02 12:22:00;;;;;;;2.20;1.67;;;;;;;;;;5081834;28;20225;-84
2024/01/02 12:24:30;;;;;;;1.57;1.57;;;;;;;;;;5091605;28;20208;-85
2024/01/02 12:26:57;;;;;;;2.07;1.97;;;;;;;;;;5074318;28;20229;-84
2024/01/02 12:29:31;;;;;;;2.50;2.30;;;;;;;;;;5073856;28;20205;-84
2024/01/02 12:32:01;;;;;;;1.60;1.50;;;;;;;;;;5079371;28;20230;-85
2024/01/02 12:34:32;;;;;;;1.53;1.50;;;;;;;;;;5077332;28;20208;-84
2024/01/02 12:37:04;;;;;;;1.37;1.37;;;;;;;;;;5075550;28;20559;-85
2024/01/02 12:39:34;;;;;;;1.60;1.50;;;;;;;;;;5073285;28;20205;-85
2024/01/02 12:42:04;;;;;;;1.50;1.50;;;;;;;;;;5079761;28;20237;-85
2024/01/02 12:44:33;;;;;;;1.50;1.50;;;;;;;;;;5073082;28;20212;-84
2024/01/02 12:47:06;;;;;;;1.60;1.50;;;;;;;;;;5072740;28;20722;-85
2024/01/02 12:49:33;;;;;;;1.70;1.60;;;;;;;;;;5073070;28;20243;-85
2024/01/02 12:52:04;;;;;;;1.50;1.50;;;;;;;;;;5079861;28;20305;-84
2024/01/02 12:54:31;;;;;;;1.60;1.60;;;;;;;;;;5078543;28;20208;-85
2024/01/02 12:57:02;;;;;;;1.20;1.20;;;;;;;;;;5091018;28;20649;-85
2024/01/02 12:59:31;;;;;;;1.40;1.40;;;;;;;;;;5082924;28;20346;-85
2024/01/02 13:01:59;;;;;;;1.20;1.20;;;;;;;;;;5080505;28;20232;-85
2024/01/02 13:04:26;;;;;;;1.33;1.33;;;;;;;;;;5091509;28;20220;-85
2024/01/02 13:06:53;;;;;;;1.53;1.43;;;;;;;;;;5091353;28;20236;-85
2024/01/02 13:09:22;;;;;;;1.37;1.37;;;;;;;;;;5092298;28;20763;-85
2024/01/02 13:11:49;;;;;;;1.03;1.03;;;;;;;;;;5090499;28;20228;-84
2024/01/02 13:14:18;;;;;;;1.67;1.57;;;;;;;;;;5090711;28;20220;-85
2024/01/02 13:16:46;;;;;;;1.40;1.40;;;;;;;;;;5090949;28;20224;-84
2024/01/02 13:19:16;;;;;;;1.40;1.40;;;;;;;;;;5091367;28;20244;-84
2024/01/02 13:21:44;;;;;;;1.37;1.37;;;;;;;;;;5086792;28;20247;-85
2024/01/02 13:24:11;;;;;;;1.23;1.23;;;;;;;;;;5088838;28;20750;-85
2024/01/02 13:26:43;;;;;;;1.63;1.53;;;;;;;;;;5082402;28;20286;-84
2024/01/02 13:29:11;;;;;;;1.23;1.23;;;;;;;;;;5088419;28;20215;-85
2024/01/02 13:31:40;;;;;;;1.20;1.20;;;;;;;;;;5076880;28;20257;-84
2024/01/02 13:34:08;;;;;;;1.93;1.83;;;;;;;;;;5070355;28;20217;-84
2024/01/02 13:36:46;;;;;;;2.33;2.17;;;;;;;;;;5070468;28;20241;-85
2024/01/02 13:39:28;;;;;;;1.30;1.30;;;;;;;;;;5045356;22;20243;-87
2024/01/02 13:41:56;;;;;;;1.70;1.60;;;;;;;;;;4997523;28;20258;-87
2024/01/02 13:44:23;;;;;;;1.80;1.70;;;;;;;;;;5002253;28;20671;-87
2024/01/02 13:46:50;;;;;;;1.53;1.43;;;;;;;;;;5002014;28;20232;-87
2024/01/02 13:49:17;;;;;;;1.40;1.30;;;;;;;;;;5002364;28;20228;-87
2024/01/02 13:51:47;;;;;;;1.77;1.67;;;;;;;;;;5015300;28;20227;-88
2024/01/02 13:54:14;;;;;;;1.63;1.60;;;;;;;;;;5021871;28;20215;-89
2024/01/02 13:56:48;;;;;;;1.80;1.70;;;;;;;;;;5024246;28;20227;-85
2024/01/02 13:59:19;;;;;;;1.30;1.30;;;;;;;;;;5022415;28;20645;-84
2024/01/02 14:01:47;;;;;;;1.23;1.23;;;;;;;;;;5020019;28;20235;-85
2024/01/02 14:04:21;;;;;;;1.60;1.50;;;;;;;;;;5021336;28;20211;-83
2024/01/02 14:06:48;;;;;;;1.30;1.30;;;;;;;;;;5023513;28;20307;-85
2024/01/02 14:09:17;;;;;;;1.47;1.37;;;;;;;;;;5021708;28;20277;-85
2024/01/02 14:11:57;;;;;;;1.57;1.47;;;;;;;;;;5019721;28;20811;-85
2024/01/02 14:14:30;;;;;;;1.70;1.60;;;;;;;;;;5022330;28;20206;-84
2024/01/02 14:17:00;;;;;;;4.33;1.47;;;;;;;;;;5007822;28;20228;-84
2024/01/02 14:19:28;;;;;;;1.30;1.20;;;;;;;;;;5008425;28;20728;-84
2024/01/02 14:21:57;;;;;;;1.23;1.23;;;;;;;;;;5015620;28;20242;-85
2024/01/02 14:24:27;;;;;;;1.83;1.73;;;;;;;;;;5011119;28;20207;-85
2024/01/02 14:26:57;;;;;;;1.80;1.70;;;;;;;;;;5019242;28;20233;-86
2024/01/02 14:29:28;;;;;;;1.80;1.70;;;;;;;;;;5023143;28;20261;-85
2024/01/02 14:32:01;;;;;;;1.20;1.20;;;;;;;;;;5022053;28;20324;-87
2024/01/02 14:34:35;;;;;;;1.50;1.50;;;;;;;;;;5009796;28;20262;-88
2024/01/02 14:37:05;;;;;;;1.37;1.37;;;;;;;;;;4996837;28;20311;-87
2024/01/02 14:39:54;;;;;;;1.20;1.17;;;;;;;;;;4987551;28;20232;-88
2024/01/02 14:42:32;;;;;;;1.37;1.30;;;;;;;;;;4992596;28;20721;-88
2024/01/02 14:45:03;;;;;;;1.33;1.33;;;;;;;;;;5001253;28;20218;-88
2024/01/02 14:47:34;;;;;;;1.80;1.70;;;;;;;;;;5012364;28;20227;-89
2024/01/02 14:50:04;;;;;;;1.70;1.60;;;;;;;;;;5009835;28;20764;-87
2024/01/02 14:52:50;;;;;;;1.17;1.17;;;;;;;;;;4992948;28;20338;-86
2024/01/02 14:55:26;;;;;;;1.50;1.40;;;;;;;;;;5002781;28;20222;-86